sensor_id;sensor_type;location;lat;lon;timestamp;temperature;humidity
19000;DHT22;9633;50.980;13.850;2022-07-09T00:01:40;11.00;99.90
19000;DHT22;9633;50.980;13.850;2022-07-09T00:03:13;11.00;99.90
19000;DHT22;9633;50.980;13.850;2022-07-09T00:04:46;11.00;99.90
19000;DHT22;9633;50.980;13.850;2022-07-09T00:06:21;11.10;99.90
19000;DHT22;9633;50.980;13.850;2022-07-09T00:07:54;11.00;99.90
19000;DHT22;9633;50.980;13.850;2022-07-09T00:09:26;10.90;99.90
19000;DHT22;9633;50.980;13.850;2022-07-09T00:10:59;10.90;99.90
19000;DHT22;9633;50.980;13.850;2022-07-09T00:12:33;10.90;99.90
19000;DHT22;9633;50.980;13.850;2022-07-09T00:14:05;10.80;99.90
19000;DHT22;9633;50.980;13.850;2022-07-09T00:15:41;10.80;99.90
19000;DHT22;9633;50.980;13.850;2022-07-09T00:17:14;10.90;99.90
19000;DHT22;9633;50.980;13.850;2022-07-09T00:18:48;10.80;99.90
19000;DHT22;9633;50.980;13.850;2022-07-09T00:20:21;10.80;99.90
19000;DHT22;9633;50.980;13.850;2022-07-09T00:21:54;10.80;99.90
19000;DHT22;9633;50.980;13.850;2022-07-09T00:23:28;10.80;99.90
19000;DHT22;9633;50.980;13.850;2022-07-09T00:25:01;10.80;99.90
19000;DHT22;9633;50.980;13.850;2022-07-09T00:26:34;10.80;99.90
19000;DHT22;9633;50.980;13.850;2022-07-09T00:28:07;10.80;99.90
19000;DHT22;9633;50.980;13.850;2022-07-09T00:29:41;10.70;99.90
19000;DHT22;9633;50.980;13.850;2022-07-09T00:31:13;10.70;99.90
19000;DHT22;9633;50.980;13.850;2022-07-09T00:32:46;10.70;99.90
19000;DHT22;9633;50.980;13.850;2022-07-09T00:34:20;10.70;99.90
19000;DHT22;9633;50.980;13.850;2022-07-09T00:35:53;10.70;99.90
19000;DHT22;9633;50.980;13.850;2022-07-09T00:37:26;10.60;99.90
19000;DHT22;9633;50.980;13.850;2022-07-09T00:39:00;10.60;99.90
19000;DHT22;9633;50.980;13.850;2022-07-09T00:40:33;10.60;99.90
19000;DHT22;9633;50.980;13.850;2022-07-09T00:42:08;10.50;99.90
19000;DHT22;9633;50.980;13.850;2022-07-09T00:43:46;10.50;99.90
19000;DHT22;9633;50.980;13.850;2022-07-09T00:45:20;10.50;99.90
19000;DHT22;9633;50.980;13.850;2022-07-09T00:46:53;10.50;99.90
19000;DHT22;9633;50.980;13.850;2022-07-09T00:48:26;10.50;99.90
19000;DHT22;9633;50.980;13.850;2022-07-09T00:50:00;10.50;99.90
19000;DHT22;9633;50.980;13.850;2022-07-09T00:51:32;10.40;99.90
19000;DHT22;9633;50.980;13.850;2022-07-09T00:53:07;10.40;99.90
19000;DHT22;9633;50.980;13.850;2022-07-09T00:54:41;10.40;99.90
19000;DHT22;9633;50.980;13.850;2022-07-09T00:56:15;10.40;99.90
19000;DHT22;9633;50.980;13.850;2022-07-09T00:57:49;10.40;99.90
19000;DHT22;9633;50.980;13.850;2022-07-09T00:59:22;10.40;99.90
19000;DHT22;9633;50.980;13.850;2022-07-09T01:00:56;10.40;99.90
19000;DHT22;9633;50.980;13.850;2022-07-09T01:02:29;10.40;99.90
19000;DHT22;9633;50.980;13.850;2022-07-09T01:04:02;10.40;99.90
19000;DHT22;9633;50.980;13.850;2022-07-09T01:05:35;10.30;99.90
19000;DHT22;9633;50.980;13.850;2022-07-09T01:07:08;10.30;99.90
19000;DHT22;9633;50.980;13.850;2022-07-09T01:08:43;10.30;99.90
19000;DHT22;9633;50.980;13.850;2022-07-09T01:10:17;10.40;99.90
19000;DHT22;9633;50.980;13.850;2022-07-09T01:11:49;10.40;99.90
19000;DHT22;9633;50.980;13.850;2022-07-09T01:13:25;10.40;99.90
19000;DHT22;9633;50.980;13.850;2022-07-09T01:14:58;10.40;99.90
19000;DHT22;9633;50.980;13.850;2022-07-09T01:16:31;10.30;99.90
19000;DHT22;9633;50.980;13.850;2022-07-09T01:18:05;10.30;99.90
19000;DHT22;9633;50.980;13.850;2022-07-09T01:19:38;10.30;99.90
19000;DHT22;9633;50.980;13.850;2022-07-09T01:21:12;10.40;99.90
19000;DHT22;9633;50.980;13.850;2022-07-09T01:22:45;10.40;99.90
19000;DHT22;9633;50.980;13.850;2022-07-09T01:24:18;10.50;99.90
19000;DHT22;9633;50.980;13.850;2022-07-09T01:25:51;10.50;99.90
19000;DHT22;9633;50.980;13.850;2022-07-09T01:27:24;10.50;99.90
19000;DHT22;9633;50.980;13.850;2022-07-09T01:28:57;10.50;99.90
19000;DHT22;9633;50.980;13.850;2022-07-09T01:30:31;10.50;99.90
19000;DHT22;9633;50.980;13.850;2022-07-09T01:32:05;10.50;99.90
19000;DHT22;9633;50.980;13.850;2022-07-09T01:33:38;10.40;99.90
19000;DHT22;9633;50.980;13.850;2022-07-09T01:35:11;10.40;99.90
19000;DHT22;9633;50.980;13.850;2022-07-09T01:36:45;10.40;99.90
19000;DHT22;9633;50.980;13.850;2022-07-09T01:38:19;10.30;99.90
19000;DHT22;9633;50.980;13.850;2022-07-09T01:39:52;10.40;99.90
19000;DHT22;9633;50.980;13.850;2022-07-09T01:41:25;10.40;99.90
19000;DHT22;9633;50.980;13.850;2022-07-09T01:42:58;10.30;99.90
19000;DHT22;9633;50.980;13.850;2022-07-09T01:44:31;10.20;99.90
19000;DHT22;9633;50.980;13.850;2022-07-09T01:46:04;10.20;99.90
19000;DHT22;9633;50.980;13.850;2022-07-09T01:47:37;10.10;99.90
19000;DHT22;9633;50.980;13.850;2022-07-09T01:49:10;10.10;99.90
19000;DHT22;9633;50.980;13.850;2022-07-09T01:50:43;10.10;99.90
19000;DHT22;9633;50.980;13.850;2022-07-09T01:52:18;10.20;99.90
19000;DHT22;9633;50.980;13.850;2022-07-09T01:53:51;10.30;99.90
19000;DHT22;9633;50.980;13.850;2022-07-09T01:55:24;10.30;99.90
19000;DHT22;9633;50.980;13.850;2022-07-09T01:56:57;10.40;99.90
19000;DHT22;9633;50.980;13.850;2022-07-09T01:58:30;10.40;99.90
19000;DHT22;9633;50.980;13.850;2022-07-09T02:00:05;10.40;99.90
19000;DHT22;9633;50.980;13.850;2022-07-09T02:01:45;10.40;99.90
19000;DHT22;9633;50.980;13.850;2022-07-09T02:03:18;10.40;99.90
19000;DHT22;9633;50.980;13.850;2022-07-09T02:04:50;10.40;99.90
19000;DHT22;9633;50.980;13.850;2022-07-09T02:06:24;10.30;99.90
19000;DHT22;9633;50.980;13.850;2022-07-09T02:07:58;10.30;99.90
19000;DHT22;9633;50.980;13.850;2022-07-09T02:09:30;10.20;99.90
19000;DHT22;9633;50.980;13.850;2022-07-09T02:11:04;10.20;99.90
19000;DHT22;9633;50.980;13.850;2022-07-09T02:12:36;10.30;99.90
19000;DHT22;9633;50.980;13.850;2022-07-09T02:14:09;10.30;99.90
19000;DHT22;9633;50.980;13.850;2022-07-09T02:15:43;10.30;99.90
19000;DHT22;9633;50.980;13.850;2022-07-09T02:17:16;10.30;99.90
19000;DHT22;9633;50.980;13.850;2022-07-09T02:18:49;10.30;99.90
19000;DHT22;9633;50.980;13.850;2022-07-09T02:20:23;10.40;99.90
19000;DHT22;9633;50.980;13.850;2022-07-09T02:21:56;10.30;99.90
19000;DHT22;9633;50.980;13.850;2022-07-09T02:23:31;10.40;99.90
19000;DHT22;9633;50.980;13.850;2022-07-09T02:25:05;10.40;99.90
19000;DHT22;9633;50.980;13.850;2022-07-09T02:26:37;10.40;99.90
19000;DHT22;9633;50.980;13.850;2022-07-09T02:28:10;10.40;99.90
19000;DHT22;9633;50.980;13.850;2022-07-09T02:29:44;10.40;99.90
19000;DHT22;9633;50.980;13.850;2022-07-09T02:31:16;10.40;99.90
19000;DHT22;9633;50.980;13.850;2022-07-09T02:32:49;10.50;99.90
19000;DHT22;9633;50.980;13.850;2022-07-09T02:34:22;10.50;99.90
19000;DHT22;9633;50.980;13.850;2022-07-09T02:35:55;10.50;99.90
19000;DHT22;9633;50.980;13.850;2022-07-09T02:37:28;10.60;99.90
19000;DHT22;9633;50.980;13.850;2022-07-09T02:39:02;10.60;99.90
19000;DHT22;9633;50.980;13.850;2022-07-09T02:40:35;10.70;99.90
19000;DHT22;9633;50.980;13.850;2022-07-09T02:42:09;10.70;99.90
19000;DHT22;9633;50.980;13.850;2022-07-09T02:43:42;10.80;99.90
19000;DHT22;9633;50.980;13.850;2022-07-09T02:45:15;10.80;99.90
19000;DHT22;9633;50.980;13.850;2022-07-09T02:46:48;10.90;99.90
19000;DHT22;9633;50.980;13.850;2022-07-09T02:48:21;10.90;99.90
19000;DHT22;9633;50.980;13.850;2022-07-09T02:49:54;11.00;99.90
19000;DHT22;9633;50.980;13.850;2022-07-09T02:51:27;11.00;99.90
19000;DHT22;9633;50.980;13.850;2022-07-09T02:53:00;11.00;99.90
19000;DHT22;9633;50.980;13.850;2022-07-09T02:54:34;11.20;99.90
19000;DHT22;9633;50.980;13.850;2022-07-09T02:56:06;11.20;99.90
19000;DHT22;9633;50.980;13.850;2022-07-09T02:57:40;11.30;99.90
19000;DHT22;9633;50.980;13.850;2022-07-09T02:59:13;11.40;99.90
19000;DHT22;9633;50.980;13.850;2022-07-09T03:00:45;11.50;99.90
19000;DHT22;9633;50.980;13.850;2022-07-09T03:02:18;11.60;99.90
19000;DHT22;9633;50.980;13.850;2022-07-09T03:03:51;11.60;99.90
19000;DHT22;9633;50.980;13.850;2022-07-09T03:05:25;11.70;99.90
19000;DHT22;9633;50.980;13.850;2022-07-09T03:06:57;11.70;99.90
19000;DHT22;9633;50.980;13.850;2022-07-09T03:08:30;11.70;99.90
19000;DHT22;9633;50.980;13.850;2022-07-09T03:10:06;11.80;99.90
19000;DHT22;9633;50.980;13.850;2022-07-09T03:11:39;11.60;99.90
19000;DHT22;9633;50.980;13.850;2022-07-09T03:13:12;11.60;99.90
19000;DHT22;9633;50.980;13.850;2022-07-09T03:14:45;11.70;99.90
19000;DHT22;9633;50.980;13.850;2022-07-09T03:16:18;11.70;99.90
19000;DHT22;9633;50.980;13.850;2022-07-09T03:17:52;11.70;99.90
19000;DHT22;9633;50.980;13.850;2022-07-09T03:19:25;11.60;99.90
19000;DHT22;9633;50.980;13.850;2022-07-09T03:20:58;11.60;99.90
19000;DHT22;9633;50.980;13.850;2022-07-09T03:22:31;11.60;99.90
19000;DHT22;9633;50.980;13.850;2022-07-09T03:24:04;11.50;99.90
19000;DHT22;9633;50.980;13.850;2022-07-09T03:25:41;11.50;99.90
19000;DHT22;9633;50.980;13.850;2022-07-09T03:27:14;11.50;99.90
19000;DHT22;9633;50.980;13.850;2022-07-09T03:28:48;11.50;99.90
19000;DHT22;9633;50.980;13.850;2022-07-09T03:30:21;11.40;99.90
19000;DHT22;9633;50.980;13.850;2022-07-09T03:31:55;11.40;99.90
19000;DHT22;9633;50.980;13.850;2022-07-09T03:33:28;11.30;99.90
19000;DHT22;9633;50.980;13.850;2022-07-09T03:35:00;11.30;99.90
19000;DHT22;9633;50.980;13.850;2022-07-09T03:36:33;11.30;99.90
19000;DHT22;9633;50.980;13.850;2022-07-09T03:38:07;11.10;99.90
19000;DHT22;9633;50.980;13.850;2022-07-09T03:39:41;11.10;99.90
19000;DHT22;9633;50.980;13.850;2022-07-09T03:41:15;11.10;99.90
19000;DHT22;9633;50.980;13.850;2022-07-09T03:42:48;11.10;99.90
19000;DHT22;9633;50.980;13.850;2022-07-09T03:44:22;11.10;99.90
19000;DHT22;9633;50.980;13.850;2022-07-09T03:45:55;11.10;99.90
19000;DHT22;9633;50.980;13.850;2022-07-09T03:47:29;11.10;99.90
19000;DHT22;9633;50.980;13.850;2022-07-09T03:49:02;11.10;99.90
19000;DHT22;9633;50.980;13.850;2022-07-09T03:50:35;11.20;99.90
19000;DHT22;9633;50.980;13.850;2022-07-09T03:52:08;11.30;99.90
19000;DHT22;9633;50.980;13.850;2022-07-09T03:53:48;11.40;99.90
19000;DHT22;9633;50.980;13.850;2022-07-09T03:55:21;11.60;99.90
19000;DHT22;9633;50.980;13.850;2022-07-09T03:56:55;11.80;99.90
19000;DHT22;9633;50.980;13.850;2022-07-09T03:58:28;12.00;99.90
19000;DHT22;9633;50.980;13.850;2022-07-09T04:00:03;12.10;99.90
19000;DHT22;9633;50.980;13.850;2022-07-09T04:01:43;12.30;99.90
19000;DHT22;9633;50.980;13.850;2022-07-09T04:03:17;12.40;99.90
19000;DHT22;9633;50.980;13.850;2022-07-09T04:04:50;12.60;99.90
19000;DHT22;9633;50.980;13.850;2022-07-09T04:06:23;12.80;99.90
19000;DHT22;9633;50.980;13.850;2022-07-09T04:07:57;13.00;99.90
19000;DHT22;9633;50.980;13.850;2022-07-09T04:09:30;13.10;99.90
19000;DHT22;9633;50.980;13.850;2022-07-09T04:11:03;13.30;99.90
19000;DHT22;9633;50.980;13.850;2022-07-09T04:12:37;13.40;99.90
19000;DHT22;9633;50.980;13.850;2022-07-09T04:14:11;13.50;99.90
19000;DHT22;9633;50.980;13.850;2022-07-09T04:15:46;13.60;99.90
19000;DHT22;9633;50.980;13.850;2022-07-09T04:17:19;13.70;99.90
19000;DHT22;9633;50.980;13.850;2022-07-09T04:18:52;13.70;99.90
19000;DHT22;9633;50.980;13.850;2022-07-09T04:20:26;13.70;99.90
19000;DHT22;9633;50.980;13.850;2022-07-09T04:21:59;13.80;99.90
19000;DHT22;9633;50.980;13.850;2022-07-09T04:23:34;13.90;99.90
19000;DHT22;9633;50.980;13.850;2022-07-09T04:25:07;14.00;99.90
19000;DHT22;9633;50.980;13.850;2022-07-09T04:26:40;14.10;99.90
19000;DHT22;9633;50.980;13.850;2022-07-09T04:28:14;14.20;99.90
19000;DHT22;9633;50.980;13.850;2022-07-09T04:29:47;14.30;99.90
19000;DHT22;9633;50.980;13.850;2022-07-09T04:31:19;14.50;99.90
19000;DHT22;9633;50.980;13.850;2022-07-09T04:32:53;14.70;99.90
19000;DHT22;9633;50.980;13.850;2022-07-09T04:34:26;14.70;99.90
19000;DHT22;9633;50.980;13.850;2022-07-09T04:35:59;14.80;99.90
19000;DHT22;9633;50.980;13.850;2022-07-09T04:37:33;14.90;99.90
19000;DHT22;9633;50.980;13.850;2022-07-09T04:39:06;14.90;99.90
19000;DHT22;9633;50.980;13.850;2022-07-09T04:40:39;14.90;99.90
19000;DHT22;9633;50.980;13.850;2022-07-09T04:42:12;14.90;99.90
19000;DHT22;9633;50.980;13.850;2022-07-09T04:43:46;15.00;99.90
19000;DHT22;9633;50.980;13.850;2022-07-09T04:45:19;15.20;99.90
19000;DHT22;9633;50.980;13.850;2022-07-09T04:46:53;15.30;99.90
19000;DHT22;9633;50.980;13.850;2022-07-09T04:48:25;15.40;99.90
19000;DHT22;9633;50.980;13.850;2022-07-09T04:49:58;15.50;99.90
19000;DHT22;9633;50.980;13.850;2022-07-09T04:51:32;15.60;99.90
19000;DHT22;9633;50.980;13.850;2022-07-09T04:53:05;15.60;99.90
19000;DHT22;9633;50.980;13.850;2022-07-09T04:54:38;15.50;99.90
19000;DHT22;9633;50.980;13.850;2022-07-09T04:56:11;15.70;99.90
19000;DHT22;9633;50.980;13.850;2022-07-09T04:57:44;15.70;99.90
19000;DHT22;9633;50.980;13.850;2022-07-09T04:59:19;15.40;99.90
19000;DHT22;9633;50.980;13.850;2022-07-09T05:00:52;15.30;99.90
19000;DHT22;9633;50.980;13.850;2022-07-09T05:02:25;15.40;99.90
19000;DHT22;9633;50.980;13.850;2022-07-09T05:03:59;15.50;99.90
19000;DHT22;9633;50.980;13.850;2022-07-09T05:05:32;15.90;99.90
19000;DHT22;9633;50.980;13.850;2022-07-09T05:07:16;16.30;99.90
19000;DHT22;9633;50.980;13.850;2022-07-09T05:08:49;16.10;99.90
19000;DHT22;9633;50.980;13.850;2022-07-09T05:10:22;15.90;99.90
19000;DHT22;9633;50.980;13.850;2022-07-09T05:11:55;16.20;99.90
19000;DHT22;9633;50.980;13.850;2022-07-09T05:13:28;16.40;99.90
19000;DHT22;9633;50.980;13.850;2022-07-09T05:15:04;16.40;99.90
19000;DHT22;9633;50.980;13.850;2022-07-09T05:16:37;16.30;99.90
19000;DHT22;9633;50.980;13.850;2022-07-09T05:18:16;16.30;99.90
19000;DHT22;9633;50.980;13.850;2022-07-09T05:19:49;16.50;99.90
19000;DHT22;9633;50.980;13.850;2022-07-09T05:21:23;16.30;99.90
19000;DHT22;9633;50.980;13.850;2022-07-09T05:22:56;16.30;99.90
19000;DHT22;9633;50.980;13.850;2022-07-09T05:24:30;16.20;99.90
19000;DHT22;9633;50.980;13.850;2022-07-09T05:26:03;16.00;99.90
19000;DHT22;9633;50.980;13.850;2022-07-09T05:27:41;16.00;99.90
19000;DHT22;9633;50.980;13.850;2022-07-09T05:29:14;16.00;99.90
19000;DHT22;9633;50.980;13.850;2022-07-09T05:30:49;16.10;99.90
19000;DHT22;9633;50.980;13.850;2022-07-09T05:32:42;16.50;99.90
19000;DHT22;9633;50.980;13.850;2022-07-09T05:34:16;16.90;99.90
19000;DHT22;9633;50.980;13.850;2022-07-09T05:35:49;17.30;99.90
19000;DHT22;9633;50.980;13.850;2022-07-09T05:37:22;17.30;99.90
19000;DHT22;9633;50.980;13.850;2022-07-09T05:38:56;17.40;99.90
19000;DHT22;9633;50.980;13.850;2022-07-09T05:40:29;17.60;99.90
19000;DHT22;9633;50.980;13.850;2022-07-09T05:42:03;17.40;99.90
19000;DHT22;9633;50.980;13.850;2022-07-09T05:43:36;17.60;99.90
19000;DHT22;9633;50.980;13.850;2022-07-09T05:45:10;17.80;99.90
19000;DHT22;9633;50.980;13.850;2022-07-09T05:46:45;17.90;99.90
19000;DHT22;9633;50.980;13.850;2022-07-09T05:48:18;17.90;99.90
19000;DHT22;9633;50.980;13.850;2022-07-09T05:49:51;17.90;99.90
19000;DHT22;9633;50.980;13.850;2022-07-09T05:51:24;17.50;99.90
19000;DHT22;9633;50.980;13.850;2022-07-09T05:52:58;17.50;99.90
19000;DHT22;9633;50.980;13.850;2022-07-09T05:54:31;17.60;99.90
19000;DHT22;9633;50.980;13.850;2022-07-09T05:56:05;17.60;99.90
19000;DHT22;9633;50.980;13.850;2022-07-09T05:57:39;17.50;99.90
19000;DHT22;9633;50.980;13.850;2022-07-09T05:59:12;17.60;99.90
19000;DHT22;9633;50.980;13.850;2022-07-09T06:00:45;18.00;99.90
19000;DHT22;9633;50.980;13.850;2022-07-09T06:02:20;17.90;99.90
19000;DHT22;9633;50.980;13.850;2022-07-09T06:03:53;17.70;99.90
19000;DHT22;9633;50.980;13.850;2022-07-09T06:05:26;17.80;99.90
19000;DHT22;9633;50.980;13.850;2022-07-09T06:06:59;17.60;99.90
19000;DHT22;9633;50.980;13.850;2022-07-09T06:08:32;17.60;99.90
19000;DHT22;9633;50.980;13.850;2022-07-09T06:10:07;17.90;99.90
19000;DHT22;9633;50.980;13.850;2022-07-09T06:11:40;17.90;99.90
19000;DHT22;9633;50.980;13.850;2022-07-09T06:13:14;18.30;99.90
19000;DHT22;9633;50.980;13.850;2022-07-09T06:14:47;18.50;99.90
19000;DHT22;9633;50.980;13.850;2022-07-09T06:16:20;18.30;99.90
19000;DHT22;9633;50.980;13.850;2022-07-09T06:17:55;18.70;99.90
19000;DHT22;9633;50.980;13.850;2022-07-09T06:19:27;19.40;99.90
19000;DHT22;9633;50.980;13.850;2022-07-09T06:21:00;19.40;99.90
19000;DHT22;9633;50.980;13.850;2022-07-09T06:22:33;19.00;99.90
19000;DHT22;9633;50.980;13.850;2022-07-09T06:24:07;18.40;99.90
19000;DHT22;9633;50.980;13.850;2022-07-09T06:25:40;18.30;99.90
19000;DHT22;9633;50.980;13.850;2022-07-09T06:27:13;17.90;99.90
19000;DHT22;9633;50.980;13.850;2022-07-09T06:28:46;17.90;99.90
19000;DHT22;9633;50.980;13.850;2022-07-09T06:30:20;17.80;99.90
19000;DHT22;9633;50.980;13.850;2022-07-09T06:31:53;18.00;99.90
19000;DHT22;9633;50.980;13.850;2022-07-09T06:33:33;18.00;99.90
19000;DHT22;9633;50.980;13.850;2022-07-09T06:35:07;18.10;99.90
19000;DHT22;9633;50.980;13.850;2022-07-09T06:36:40;18.20;99.90
19000;DHT22;9633;50.980;13.850;2022-07-09T06:38:16;18.20;99.90
19000;DHT22;9633;50.980;13.850;2022-07-09T06:39:49;17.90;99.90
19000;DHT22;9633;50.980;13.850;2022-07-09T06:41:22;17.90;99.90
19000;DHT22;9633;50.980;13.850;2022-07-09T06:42:55;17.80;99.90
19000;DHT22;9633;50.980;13.850;2022-07-09T06:44:37;17.70;99.90
19000;DHT22;9633;50.980;13.850;2022-07-09T06:46:11;17.60;99.90
19000;DHT22;9633;50.980;13.850;2022-07-09T06:47:45;17.60;99.90
19000;DHT22;9633;50.980;13.850;2022-07-09T06:49:19;17.50;99.90
19000;DHT22;9633;50.980;13.850;2022-07-09T06:50:52;17.50;99.90
19000;DHT22;9633;50.980;13.850;2022-07-09T06:52:26;17.60;99.90
19000;DHT22;9633;50.980;13.850;2022-07-09T06:53:59;17.60;99.90
19000;DHT22;9633;50.980;13.850;2022-07-09T06:55:32;17.50;99.90
19000;DHT22;9633;50.980;13.850;2022-07-09T06:57:05;17.30;99.90
19000;DHT22;9633;50.980;13.850;2022-07-09T06:58:41;17.20;99.90
19000;DHT22;9633;50.980;13.850;2022-07-09T07:00:14;17.30;99.90
19000;DHT22;9633;50.980;13.850;2022-07-09T07:01:47;17.30;99.90
19000;DHT22;9633;50.980;13.850;2022-07-09T07:03:21;17.50;99.90
19000;DHT22;9633;50.980;13.850;2022-07-09T07:04:55;17.30;99.90
19000;DHT22;9633;50.980;13.850;2022-07-09T07:06:29;17.30;99.90
19000;DHT22;9633;50.980;13.850;2022-07-09T07:08:02;17.30;99.90
19000;DHT22;9633;50.980;13.850;2022-07-09T07:09:36;17.30;99.90
19000;DHT22;9633;50.980;13.850;2022-07-09T07:11:09;17.30;99.90
19000;DHT22;9633;50.980;13.850;2022-07-09T07:12:42;17.40;99.90
19000;DHT22;9633;50.980;13.850;2022-07-09T07:14:15;17.30;99.90
19000;DHT22;9633;50.980;13.850;2022-07-09T07:15:48;17.20;99.90
19000;DHT22;9633;50.980;13.850;2022-07-09T07:17:22;17.20;99.90
19000;DHT22;9633;50.980;13.850;2022-07-09T07:18:55;17.20;99.90
19000;DHT22;9633;50.980;13.850;2022-07-09T07:20:30;17.30;99.90
19000;DHT22;9633;50.980;13.850;2022-07-09T07:22:03;17.30;99.90
19000;DHT22;9633;50.980;13.850;2022-07-09T07:23:36;17.20;99.90
19000;DHT22;9633;50.980;13.850;2022-07-09T07:25:10;17.20;99.90
19000;DHT22;9633;50.980;13.850;2022-07-09T07:26:43;17.20;99.90
19000;DHT22;9633;50.980;13.850;2022-07-09T07:28:16;17.30;99.90
19000;DHT22;9633;50.980;13.850;2022-07-09T07:29:49;17.30;99.90
19000;DHT22;9633;50.980;13.850;2022-07-09T07:31:22;17.20;99.90
19000;DHT22;9633;50.980;13.850;2022-07-09T07:32:56;17.20;99.90
19000;DHT22;9633;50.980;13.850;2022-07-09T07:34:30;17.20;99.90
19000;DHT22;9633;50.980;13.850;2022-07-09T07:36:05;17.10;99.90
19000;DHT22;9633;50.980;13.850;2022-07-09T07:37:38;17.10;99.90
19000;DHT22;9633;50.980;13.850;2022-07-09T07:39:11;17.10;99.90
19000;DHT22;9633;50.980;13.850;2022-07-09T07:40:44;17.00;99.90
19000;DHT22;9633;50.980;13.850;2022-07-09T07:42:18;17.10;99.90
19000;DHT22;9633;50.980;13.850;2022-07-09T07:43:51;17.30;99.90
19000;DHT22;9633;50.980;13.850;2022-07-09T07:45:24;17.40;99.90
19000;DHT22;9633;50.980;13.850;2022-07-09T07:46:57;17.40;99.90
19000;DHT22;9633;50.980;13.850;2022-07-09T07:48:31;17.50;99.90
19000;DHT22;9633;50.980;13.850;2022-07-09T07:50:05;17.70;99.90
19000;DHT22;9633;50.980;13.850;2022-07-09T07:51:40;17.60;99.90
19000;DHT22;9633;50.980;13.850;2022-07-09T07:53:14;17.70;99.90
19000;DHT22;9633;50.980;13.850;2022-07-09T07:54:47;17.80;99.90
19000;DHT22;9633;50.980;13.850;2022-07-09T07:56:21;17.60;99.90
19000;DHT22;9633;50.980;13.850;2022-07-09T07:57:54;17.60;99.90
19000;DHT22;9633;50.980;13.850;2022-07-09T07:59:27;17.40;99.90
19000;DHT22;9633;50.980;13.850;2022-07-09T08:01:00;17.50;99.90
19000;DHT22;9633;50.980;13.850;2022-07-09T08:02:33;17.30;99.90
19000;DHT22;9633;50.980;13.850;2022-07-09T08:04:07;17.40;99.90
19000;DHT22;9633;50.980;13.850;2022-07-09T08:05:40;17.40;99.90
19000;DHT22;9633;50.980;13.850;2022-07-09T08:07:15;17.50;99.90
19000;DHT22;9633;50.980;13.850;2022-07-09T08:08:48;17.70;99.90
19000;DHT22;9633;50.980;13.850;2022-07-09T08:10:21;17.70;99.90
19000;DHT22;9633;50.980;13.850;2022-07-09T08:11:55;18.00;99.90
19000;DHT22;9633;50.980;13.850;2022-07-09T08:13:28;18.40;99.90
19000;DHT22;9633;50.980;13.850;2022-07-09T08:15:02;18.30;99.90
19000;DHT22;9633;50.980;13.850;2022-07-09T08:16:35;18.50;99.90
19000;DHT22;9633;50.980;13.850;2022-07-09T08:18:08;18.70;99.90
19000;DHT22;9633;50.980;13.850;2022-07-09T08:19:44;18.40;99.90
19000;DHT22;9633;50.980;13.850;2022-07-09T08:21:17;18.50;99.90
19000;DHT22;9633;50.980;13.850;2022-07-09T08:22:52;18.50;99.90
19000;DHT22;9633;50.980;13.850;2022-07-09T08:24:25;18.70;99.90
19000;DHT22;9633;50.980;13.850;2022-07-09T08:25:59;19.10;99.90
19000;DHT22;9633;50.980;13.850;2022-07-09T08:27:32;18.90;99.90
19000;DHT22;9633;50.980;13.850;2022-07-09T08:29:05;19.10;99.90
19000;DHT22;9633;50.980;13.850;2022-07-09T08:30:39;18.70;99.90
19000;DHT22;9633;50.980;13.850;2022-07-09T08:32:12;19.00;99.90
19000;DHT22;9633;50.980;13.850;2022-07-09T08:33:46;19.00;99.90
19000;DHT22;9633;50.980;13.850;2022-07-09T08:35:19;19.30;99.90
19000;DHT22;9633;50.980;13.850;2022-07-09T08:36:52;19.10;99.90
19000;DHT22;9633;50.980;13.850;2022-07-09T08:38:27;18.60;99.90
19000;DHT22;9633;50.980;13.850;2022-07-09T08:40:01;18.40;99.90
19000;DHT22;9633;50.980;13.850;2022-07-09T08:41:34;18.30;99.90
19000;DHT22;9633;50.980;13.850;2022-07-09T08:43:12;18.50;99.90
19000;DHT22;9633;50.980;13.850;2022-07-09T08:44:47;18.50;99.90
19000;DHT22;9633;50.980;13.850;2022-07-09T08:46:20;18.70;99.90
19000;DHT22;9633;50.980;13.850;2022-07-09T08:47:54;18.80;99.90
19000;DHT22;9633;50.980;13.850;2022-07-09T08:49:28;19.00;99.90
19000;DHT22;9633;50.980;13.850;2022-07-09T08:51:01;19.20;99.90
19000;DHT22;9633;50.980;13.850;2022-07-09T08:52:35;19.30;99.90
19000;DHT22;9633;50.980;13.850;2022-07-09T08:54:11;19.50;99.90
19000;DHT22;9633;50.980;13.850;2022-07-09T08:55:44;19.60;99.90
19000;DHT22;9633;50.980;13.850;2022-07-09T08:57:18;19.50;99.90
19000;DHT22;9633;50.980;13.850;2022-07-09T08:58:51;19.50;99.90
19000;DHT22;9633;50.980;13.850;2022-07-09T09:00:24;19.50;99.90
19000;DHT22;9633;50.980;13.850;2022-07-09T09:01:57;19.80;99.90
19000;DHT22;9633;50.980;13.850;2022-07-09T09:03:35;19.70;99.90
19000;DHT22;9633;50.980;13.850;2022-07-09T09:05:11;19.20;99.90
19000;DHT22;9633;50.980;13.850;2022-07-09T09:06:45;19.30;99.90
19000;DHT22;9633;50.980;13.850;2022-07-09T09:08:19;19.30;99.90
19000;DHT22;9633;50.980;13.850;2022-07-09T09:09:55;19.10;99.90
19000;DHT22;9633;50.980;13.850;2022-07-09T09:11:28;19.10;99.90
19000;DHT22;9633;50.980;13.850;2022-07-09T09:13:03;19.30;99.90
19000;DHT22;9633;50.980;13.850;2022-07-09T09:14:36;19.10;99.90
19000;DHT22;9633;50.980;13.850;2022-07-09T09:16:11;19.00;99.90
19000;DHT22;9633;50.980;13.850;2022-07-09T09:17:45;18.80;99.90
19000;DHT22;9633;50.980;13.850;2022-07-09T09:19:18;18.60;99.90
19000;DHT22;9633;50.980;13.850;2022-07-09T09:20:55;18.50;99.90
19000;DHT22;9633;50.980;13.850;2022-07-09T09:22:33;18.60;99.90
19000;DHT22;9633;50.980;13.850;2022-07-09T09:24:06;18.50;99.90
19000;DHT22;9633;50.980;13.850;2022-07-09T09:25:41;18.40;99.90
19000;DHT22;9633;50.980;13.850;2022-07-09T09:27:14;18.50;99.90
19000;DHT22;9633;50.980;13.850;2022-07-09T09:28:49;18.50;99.90
19000;DHT22;9633;50.980;13.850;2022-07-09T09:30:23;18.40;99.90
19000;DHT22;9633;50.980;13.850;2022-07-09T09:31:56;18.50;99.90
19000;DHT22;9633;50.980;13.850;2022-07-09T09:33:30;18.70;99.90
19000;DHT22;9633;50.980;13.850;2022-07-09T09:35:03;19.00;99.90
19000;DHT22;9633;50.980;13.850;2022-07-09T09:36:38;19.10;99.90
19000;DHT22;9633;50.980;13.850;2022-07-09T09:38:14;19.30;99.90
19000;DHT22;9633;50.980;13.850;2022-07-09T09:39:55;19.70;99.90
19000;DHT22;9633;50.980;13.850;2022-07-09T09:41:29;19.40;99.90
19000;DHT22;9633;50.980;13.850;2022-07-09T09:43:03;19.40;99.90
19000;DHT22;9633;50.980;13.850;2022-07-09T09:44:36;19.60;99.90
19000;DHT22;9633;50.980;13.850;2022-07-09T09:46:11;19.70;99.90
19000;DHT22;9633;50.980;13.850;2022-07-09T09:47:46;20.10;99.90
19000;DHT22;9633;50.980;13.850;2022-07-09T09:49:20;20.20;99.90
19000;DHT22;9633;50.980;13.850;2022-07-09T09:50:55;20.20;99.90
19000;DHT22;9633;50.980;13.850;2022-07-09T09:52:28;20.70;99.90